Time;durP1;ratioP1;P1;durP2;ratioP2;P2;SDS_P1;SDS_P2;PMS_P1;PMS_P2;Temp;Humidity;BMP_temperature;BMP_pressure;BME280_temperature;BME280_humidity;BME280_pressure;Samples;Min_cycle;Max_cycle;Signal;HPM_P1;HPM_P2
2022/08/07 00:01:55;;;;;;;1.30;1.20;;;20.30;73.80;;;;;;5115634;28;20027;-79
2022/08/07 00:04:21;;;;;;;1.73;1.25;;;20.30;73.20;;;;;;5115789;28;20030;-78
2022/08/07 00:06:46;;;;;;;1.95;1.40;;;20.30;72.80;;;;;;5115405;28;20268;-78
2022/08/07 00:09:12;;;;;;;1.52;1.05;;;20.30;73.00;;;;;;5115816;28;20110;-77
2022/08/07 00:11:38;;;;;;;1.50;1.40;;;20.30;73.30;;;;;;5114989;28;20103;-77
2022/08/07 00:14:03;;;;;;;3.35;1.50;;;20.30;73.40;;;;;;5115498;28;20410;-77
2022/08/07 00:16:29;;;;;;;4.32;1.38;;;20.30;73.00;;;;;;5115049;28;20032;-76
2022/08/07 00:18:55;;;;;;;2.88;1.30;;;20.20;72.90;;;;;;5115512;27;20042;-76
2022/08/07 00:21:20;;;;;;;1.30;1.20;;;20.20;73.10;;;;;;5117941;27;20110;-77
2022/08/07 00:23:46;;;;;;;1.45;1.10;;;20.20;73.30;;;;;;5115104;28;20024;-77
2022/08/07 00:26:11;;;;;;;1.40;1.30;;;20.20;73.40;;;;;;5115405;28;20073;-77
2022/08/07 00:28:37;;;;;;;2.35;1.25;;;20.20;73.50;;;;;;5115091;28;20027;-77
2022/08/07 00:31:08;;;;;;;1.20;1.10;;;20.10;73.70;;;;;;5115469;28;20035;-77
2022/08/07 00:33:35;;;;;;;3.22;1.17;;;20.10;73.70;;;;;;5115209;28;20035;-78
2022/08/07 00:36:02;;;;;;;1.95;1.20;;;20.10;73.80;;;;;;5115425;28;20032;-78
2022/08/07 00:38:28;;;;;;;1.55;1.10;;;20.20;73.60;;;;;;5115172;28;20027;-78
2022/08/07 00:40:53;;;;;;;1.30;1.02;;;20.20;73.60;;;;;;5114806;28;20049;-79
2022/08/07 00:43:19;;;;;;;1.17;1.02;;;20.20;73.00;;;;;;5115097;28;20046;-79
2022/08/07 00:45:45;;;;;;;1.30;1.20;;;20.20;72.70;;;;;;5114707;28;20028;-78
2022/08/07 00:48:10;;;;;;;1.10;1.00;;;20.20;72.50;;;;;;5115265;28;20042;-77
2022/08/07 00:50:40;;;;;;;1.90;1.13;;;20.20;72.30;;;;;;5114139;28;20027;-79
2022/08/07 00:53:06;;;;;;;2.00;1.08;;;20.20;72.40;;;;;;5114991;28;20501;-79
2022/08/07 00:55:32;;;;;;;1.27;1.08;;;20.20;72.40;;;;;;5114673;28;20126;-74
2022/08/07 00:57:57;;;;;;;1.35;1.02;;;20.20;72.00;;;;;;5113935;28;20085;-78
2022/08/07 01:00:24;;;;;;;1.60;1.10;;;20.10;72.40;;;;;;5096303;28;20028;-78
2022/08/07 01:02:50;;;;;;;0.95;0.93;;;20.10;72.30;;;;;;5113726;28;20031;-79
2022/08/07 01:05:16;;;;;;;1.83;1.20;;;20.10;72.50;;;;;;5114772;28;20107;-79
2022/08/07 01:07:42;;;;;;;2.17;1.17;;;20.10;72.30;;;;;;5114017;28;20032;-80
2022/08/07 01:10:09;;;;;;;1.27;1.05;;;20.10;72.00;;;;;;5114296;28;20518;-78
2022/08/07 01:12:36;;;;;;;1.02;1.00;;;20.10;71.70;;;;;;5113761;28;20035;-78
2022/08/07 01:15:03;;;;;;;1.55;1.20;;;20.10;71.40;;;;;;5114396;28;20039;-77
2022/08/07 01:17:29;;;;;;;1.63;1.10;;;20.10;71.60;;;;;;5114681;28;20065;-79
2022/08/07 01:20:01;;;;;;;1.85;1.38;;;20.10;71.40;;;;;;5114041;28;20550;-78
2022/08/07 01:22:27;;;;;;;1.20;1.10;;;20.10;71.70;;;;;;5114108;28;20415;-78
2022/08/07 01:24:53;;;;;;;0.98;0.95;;;20.10;71.70;;;;;;5095710;28;20061;-77
2022/08/07 01:27:19;;;;;;;1.20;1.10;;;20.10;71.60;;;;;;5114163;28;20020;-78
2022/08/07 01:29:45;;;;;;;1.30;1.00;;;20.10;71.50;;;;;;5113343;28;20581;-77
2022/08/07 01:32:10;;;;;;;1.30;1.20;;;20.00;72.30;;;;;;5113919;28;20028;-77
2022/08/07 01:34:37;;;;;;;1.33;0.90;;;20.00;71.50;;;;;;5113327;28;20482;-77
2022/08/07 01:37:03;;;;;;;1.52;1.23;;;20.00;71.80;;;;;;5113822;28;20483;-77
2022/08/07 01:39:29;;;;;;;1.05;0.85;;;20.00;71.80;;;;;;5113748;28;20383;-77
2022/08/07 01:41:55;;;;;;;1.10;1.00;;;20.00;71.90;;;;;;5113452;28;20038;-77
2022/08/07 01:44:21;;;;;;;1.30;1.20;;;20.00;71.90;;;;;;5114015;28;20034;-78
2022/08/07 01:46:46;;;;;;;1.00;0.98;;;20.00;72.40;;;;;;5113763;28;20035;-78
2022/08/07 01:49:12;;;;;;;3.10;1.38;;;19.90;72.30;;;;;;5127957;27;20118;-78
2022/08/07 01:51:40;;;;;;;1.50;1.15;;;19.90;72.10;;;;;;5133820;27;20428;-78
2022/08/07 01:54:09;;;;;;;1.35;1.25;;;19.90;72.00;;;;;;5134251;27;20118;-78
2022/08/07 01:56:52;;;;;;;2.00;0.80;;;19.90;71.40;;;;;;5134018;27;20023;-77
2022/08/07 01:59:34;;;;;;;1.02;1.02;;;19.90;71.70;;;;;;5134549;27;20038;-78
2022/08/07 02:02:08;;;;;;;2.13;1.38;;;19.80;72.00;;;;;;5134290;27;20130;-78
2022/08/07 02:04:50;;;;;;;1.48;1.20;;;19.80;72.50;;;;;;5134004;27;20511;-78
2022/08/07 02:07:19;;;;;;;1.88;1.27;;;19.80;72.10;;;;;;5133485;27;20498;-78
2022/08/07 02:09:46;;;;;;;1.10;1.00;;;19.70;72.20;;;;;;5132747;27;20027;-78
2022/08/07 02:12:16;;;;;;;1.70;1.40;;;19.70;72.90;;;;;;5133866;27;20043;-78
2022/08/07 02:14:47;;;;;;;0.95;0.93;;;19.70;72.20;;;;;;5134010;27;20123;-79
2022/08/07 02:17:14;;;;;;;4.88;1.00;;;19.70;72.40;;;;;;5133781;27;20031;-78
2022/08/07 02:19:47;;;;;;;1.55;1.20;;;19.70;71.90;;;;;;5133287;27;20046;-77
2022/08/07 02:22:15;;;;;;;1.77;1.10;;;19.60;71.90;;;;;;5130658;27;20106;-78
2022/08/07 02:24:45;;;;;;;1.95;1.30;;;19.60;71.80;;;;;;5132807;27;20524;-78
2022/08/07 02:27:13;;;;;;;1.27;1.00;;;19.60;72.20;;;;;;5133823;27;20027;-78
2022/08/07 02:29:42;;;;;;;1.65;1.45;;;19.60;71.40;;;;;;5133010;27;20538;-76
2022/08/07 02:32:09;;;;;;;1.45;1.23;;;19.70;71.20;;;;;;5133558;27;20031;-77
2022/08/07 02:34:37;;;;;;;2.15;1.40;;;19.70;71.20;;;;;;5133553;27;20059;-78
2022/08/07 02:37:05;;;;;;;2.33;1.10;;;19.60;71.60;;;;;;5133642;27;20023;-78
2022/08/07 02:39:32;;;;;;;1.92;1.25;;;19.60;71.70;;;;;;5133544;27;20019;-78
2022/08/07 02:41:59;;;;;;;1.98;1.17;;;19.60;71.80;;;;;;5133095;27;20062;-78
2022/08/07 02:44:26;;;;;;;1.38;1.27;;;19.60;71.60;;;;;;5133132;27;20030;-78
2022/08/07 02:46:53;;;;;;;2.40;1.50;;;19.60;71.30;;;;;;5133341;27;20130;-78
2022/08/07 02:49:19;;;;;;;1.77;1.20;;;19.60;71.50;;;;;;5133446;27;20031;-78
2022/08/07 02:51:47;;;;;;;3.15;1.10;;;19.60;71.90;;;;;;5132892;28;20099;-78
2022/08/07 02:54:15;;;;;;;2.00;1.20;;;19.50;72.10;;;;;;5133307;28;20037;-78
2022/08/07 02:56:44;;;;;;;1.30;1.20;;;19.50;71.80;;;;;;5132892;28;20030;-76
2022/08/07 02:59:17;;;;;;;1.70;1.20;;;19.50;71.90;;;;;;5133323;28;20072;-79
2022/08/07 03:01:44;;;;;;;1.42;1.10;;;19.50;72.10;;;;;;5114546;28;20085;-77
2022/08/07 03:04:12;;;;;;;4.97;1.10;;;19.50;72.30;;;;;;5133251;28;20119;-78
2022/08/07 03:06:38;;;;;;;2.25;1.30;;;19.50;72.10;;;;;;5132810;28;20027;-77
2022/08/07 03:09:06;;;;;;;1.33;1.15;;;19.50;71.80;;;;;;5132567;28;20015;-77
2022/08/07 03:11:34;;;;;;;1.48;1.23;;;19.50;71.90;;;;;;5132894;28;20118;-78
2022/08/07 03:14:01;;;;;;;4.47;1.52;;;19.50;72.00;;;;;;5132239;28;20028;-77
2022/08/07 03:16:28;;;;;;;1.23;1.13;;;19.50;72.10;;;;;;5133143;28;20035;-77
2022/08/07 03:18:54;;;;;;;1.40;1.30;;;19.50;72.00;;;;;;5132512;27;20034;-77
2022/08/07 03:21:21;;;;;;;1.40;1.30;;;19.50;72.40;;;;;;5136808;27;20031;-77
2022/08/07 03:23:49;;;;;;;1.95;1.20;;;19.50;72.60;;;;;;5136352;27;20034;-77
2022/08/07 03:26:18;;;;;;;1.30;1.20;;;19.40;72.70;;;;;;5137033;27;20031;-77
2022/08/07 03:28:45;;;;;;;2.00;1.30;;;19.40;72.80;;;;;;5136337;27;20058;-73
2022/08/07 03:31:20;;;;;;;2.35;1.60;;;19.50;72.70;;;;;;5137271;27;20130;-79
2022/08/07 03:33:48;;;;;;;4.47;1.50;;;19.50;72.70;;;;;;5136331;27;20023;-78
2022/08/07 03:36:15;;;;;;;1.50;1.15;;;19.50;72.50;;;;;;5136460;27;20436;-79
2022/08/07 03:38:41;;;;;;;2.45;1.20;;;19.50;72.40;;;;;;5136349;27;20394;-79
2022/08/07 03:41:09;;;;;;;3.90;1.42;;;19.50;72.80;;;;;;5136192;27;20084;-79
2022/08/07 03:43:37;;;;;;;2.75;1.33;;;19.50;73.30;;;;;;5136769;27;20106;-79
2022/08/07 03:46:05;;;;;;;2.60;1.52;;;19.50;72.90;;;;;;5136000;27;20068;-79
2022/08/07 03:48:34;;;;;;;1.20;1.10;;;19.50;73.00;;;;;;5136765;27;20076;-78
2022/08/07 03:51:02;;;;;;;1.30;1.20;;;19.50;72.70;;;;;;5136319;27;20035;-78
2022/08/07 03:53:28;;;;;;;1.08;0.90;;;19.50;72.50;;;;;;5136650;27;20031;-79
2022/08/07 03:55:56;;;;;;;2.85;1.30;;;19.50;72.70;;;;;;5132132;27;20080;-79
2022/08/07 03:58:22;;;;;;;1.23;1.13;;;19.50;72.70;;;;;;5115699;28;20028;-78
2022/08/07 04:00:51;;;;;;;1.45;1.10;;;19.50;72.80;;;;;;5114922;28;20036;-78
2022/08/07 04:03:17;;;;;;;1.27;1.17;;;19.40;72.90;;;;;;5115637;28;20101;-79
2022/08/07 04:05:42;;;;;;;1.77;1.05;;;19.40;73.30;;;;;;5115460;28;20023;-78
2022/08/07 04:08:13;;;;;;;3.40;1.45;;;19.40;73.00;;;;;;5114834;28;20019;-78
2022/08/07 04:10:40;;;;;;;2.15;1.48;;;19.40;72.90;;;;;;5115199;28;20137;-78
2022/08/07 04:13:06;;;;;;;2.15;1.10;;;19.40;72.90;;;;;;5114739;28;20575;-78
2022/08/07 04:15:33;;;;;;;2.00;1.10;;;19.40;73.30;;;;;;5115396;28;20038;-78
2022/08/07 04:18:00;;;;;;;1.38;1.27;;;19.40;73.10;;;;;;5114979;28;20027;-79
2022/08/07 04:20:26;;;;;;;1.42;1.33;;;19.40;73.10;;;;;;5115296;28;20035;-78
2022/08/07 04:22:53;;;;;;;1.13;0.90;;;19.40;73.60;;;;;;5114858;28;20024;-79
2022/08/07 04:25:21;;;;;;;1.58;1.48;;;19.40;73.80;;;;;;5115387;28;20031;-79
2022/08/07 04:27:47;;;;;;;2.10;1.48;;;19.40;73.90;;;;;;5114823;28;20016;-76
2022/08/07 04:30:13;;;;;;;5.28;1.58;;;19.30;73.50;;;;;;5117514;27;20101;-78
2022/08/07 04:32:39;;;;;;;1.15;1.05;;;19.40;73.50;;;;;;5114090;28;20478;-79
2022/08/07 04:35:06;;;;;;;1.95;1.48;;;19.40;73.40;;;;;;5114859;28;20042;-80
2022/08/07 04:37:34;;;;;;;1.48;1.38;;;19.40;73.50;;;;;;5114805;28;20510;-80
2022/08/07 04:40:00;;;;;;;1.30;1.20;;;19.40;73.70;;;;;;5114754;28;20062;-79
2022/08/07 04:42:27;;;;;;;1.90;1.60;;;19.40;73.30;;;;;;5115086;28;20068;-80
2022/08/07 04:44:57;;;;;;;4.72;1.73;;;19.40;73.50;;;;;;5114596;28;20468;-80
2022/08/07 04:47:54;;;;;;;3.83;1.55;;;19.40;73.60;;;;;;5115085;28;20028;-80
2022/08/07 04:50:27;;;;;;;2.70;1.33;;;19.40;73.80;;;;;;5115017;28;20197;-80
2022/08/07 04:53:06;;;;;;;1.30;1.13;;;19.40;74.00;;;;;;5114529;28;20118;-80
2022/08/07 04:55:45;;;;;;;1.20;1.10;;;19.40;73.70;;;;;;5115222;28;20032;-80
2022/08/07 04:58:30;;;;;;;2.10;1.10;;;19.40;73.80;;;;;;5114348;28;20501;-80
2022/08/07 05:01:02;;;;;;;2.05;1.40;;;19.40;74.40;;;;;;5114197;28;20055;-79
2022/08/07 05:03:45;;;;;;;1.98;1.38;;;19.40;74.30;;;;;;5114560;28;20027;-80
2022/08/07 05:06:17;;;;;;;1.92;1.15;;;19.40;74.00;;;;;;5113904;28;20027;-80
2022/08/07 05:08:59;;;;;;;1.27;1.15;;;19.40;73.80;;;;;;5114573;28;20059;-80
2022/08/07 05:11:32;;;;;;;2.08;1.40;;;19.50;73.70;;;;;;5114368;28;20043;-80
2022/08/07 05:14:29;;;;;;;2.53;1.27;;;19.50;73.30;;;;;;5113700;28;20039;-80
2022/08/07 05:16:59;;;;;;;2.42;1.40;;;19.50;73.80;;;;;;5113751;28;20027;-78
2022/08/07 05:19:29;;;;;;;2.28;1.30;;;19.50;73.20;;;;;;5114249;28;20024;-79
2022/08/07 05:21:59;;;;;;;2.08;1.52;;;19.50;73.10;;;;;;5113819;28;20031;-80
2022/08/07 05:24:27;;;;;;;1.77;1.30;;;19.50;73.00;;;;;;5114490;28;20104;-79
2022/08/07 05:26:55;;;;;;;2.67;1.25;;;19.50;73.20;;;;;;5113594;28;20467;-79
2022/08/07 05:29:22;;;;;;;3.92;1.40;;;19.60;73.20;;;;;;5114235;28;20380;-80
2022/08/07 05:31:49;;;;;;;1.45;1.15;;;19.60;72.90;;;;;;5114154;28;20035;-79
2022/08/07 05:34:17;;;;;;;1.25;1.08;;;19.60;72.80;;;;;;5113710;28;20042;-80
2022/08/07 05:36:46;;;;;;;2.10;1.40;;;19.70;72.90;;;;;;5114000;28;20050;-80
2022/08/07 05:39:13;;;;;;;2.38;1.40;;;19.70;73.20;;;;;;5114050;28;20373;-79
2022/08/07 05:41:40;;;;;;;3.15;1.38;;;19.60;72.80;;;;;;5113816;28;20379;-80
2022/08/07 05:44:07;;;;;;;1.42;1.17;;;19.60;73.50;;;;;;5113498;28;20024;-78
2022/08/07 05:46:35;;;;;;;1.52;1.10;;;19.60;73.40;;;;;;5113862;28;20027;-80
2022/08/07 05:49:03;;;;;;;1.80;1.40;;;19.60;73.30;;;;;;5113450;28;20031;-80
2022/08/07 05:51:29;;;;;;;1.65;0.98;;;19.60;73.40;;;;;;5113545;28;20479;-80
2022/08/07 05:53:55;;;;;;;1.63;1.20;;;19.60;73.40;;;;;;5113505;27;20176;-78
2022/08/07 05:56:21;;;;;;;1.33;1.05;;;19.60;73.60;;;;;;5131100;27;20019;-79
2022/08/07 05:58:47;;;;;;;2.35;1.40;;;19.60;73.80;;;;;;5133928;27;20027;-79
2022/08/07 06:01:15;;;;;;;1.48;1.10;;;19.60;72.70;;;;;;5133076;27;20765;-78
2022/08/07 06:03:46;;;;;;;1.63;1.20;;;19.60;72.70;;;;;;5133985;27;20054;-79
2022/08/07 06:06:12;;;;;;;;;;;19.60;72.60;;;;;;5134471;27;20042;-80
2022/08/07 06:08:40;;;;;;;1.30;1.20;;;19.70;72.80;;;;;;5133772;27;19907;-79
2022/08/07 06:11:06;;;;;;;3.08;1.40;;;19.70;72.70;;;;;;5133467;27;20027;-79
2022/08/07 06:13:32;;;;;;;1.70;1.20;;;19.70;72.80;;;;;;5133621;27;20069;-80
2022/08/07 06:16:02;;;;;;;7.43;1.80;;;19.70;72.70;;;;;;5133187;27;20068;-80
2022/08/07 06:18:30;;;;;;;3.05;1.30;;;19.70;72.40;;;;;;5133523;27;20102;-80
2022/08/07 06:20:59;;;;;;;1.17;1.08;;;19.80;72.60;;;;;;5133435;27;20042;-80
2022/08/07 06:23:24;;;;;;;1.73;1.33;;;19.80;72.20;;;;;;5133866;27;20029;-79
2022/08/07 06:25:50;;;;;;;1.50;1.17;;;19.80;72.50;;;;;;5130362;27;20452;-80
2022/08/07 06:28:16;;;;;;;1.10;1.05;;;19.80;72.30;;;;;;5133380;27;20076;-80
2022/08/07 06:30:42;;;;;;;3.50;1.35;;;19.80;72.40;;;;;;5133090;27;20099;-81
2022/08/07 06:33:08;;;;;;;1.88;1.25;;;19.80;72.20;;;;;;5132871;27;20425;-80
2022/08/07 06:35:34;;;;;;;1.65;1.17;;;19.90;71.70;;;;;;5133569;27;20023;-80
2022/08/07 06:38:00;;;;;;;3.47;1.30;;;20.00;71.70;;;;;;5132735;27;20054;-80
2022/08/07 06:40:34;;;;;;;1.45;1.33;;;20.00;71.90;;;;;;5133081;27;20067;-79
2022/08/07 06:43:01;;;;;;;1.58;1.48;;;20.10;72.10;;;;;;5132766;27;20490;-79
2022/08/07 06:45:28;;;;;;;2.70;1.23;;;20.40;70.90;;;;;;5133455;27;20019;-80
2022/08/07 06:47:54;;;;;;;1.67;1.30;;;21.00;70.60;;;;;;5133471;27;20091;-77
2022/08/07 06:50:20;;;;;;;1.88;1.27;;;21.60;66.60;;;;;;5133125;27;20455;-77
2022/08/07 06:52:50;;;;;;;1.95;1.00;;;22.20;65.10;;;;;;5133191;27;20031;-78
2022/08/07 06:55:22;;;;;;;1.52;1.20;;;22.70;64.00;;;;;;5132091;27;20421;-78
2022/08/07 06:57:50;;;;;;;1.50;0.93;;;23.10;60.80;;;;;;5115001;28;20414;-78
2022/08/07 07:00:18;;;;;;;2.08;1.17;;;23.40;59.50;;;;;;5132417;28;20066;-76
2022/08/07 07:02:44;;;;;;;3.50;1.55;;;23.40;59.00;;;;;;5132959;28;20026;-79
2022/08/07 07:05:11;;;;;;;1.00;0.90;;;23.40;58.40;;;;;;5132850;28;20437;-77
2022/08/07 07:07:37;;;;;;;1.15;1.00;;;23.30;58.30;;;;;;5133009;28;20023;-77
2022/08/07 07:10:03;;;;;;;1.20;1.08;;;23.30;58.20;;;;;;5132418;28;20023;-77
2022/08/07 07:12:53;;;;;;;1.08;0.98;;;23.20;58.80;;;;;;5114718;28;20031;-76
2022/08/07 07:15:30;;;;;;;3.28;1.27;;;23.10;59.20;;;;;;5132524;28;20027;-79
2022/08/07 07:18:11;;;;;;;1.02;0.93;;;23.20;58.70;;;;;;5133090;28;20023;-78
2022/08/07 07:20:54;;;;;;;2.22;1.15;;;23.20;58.60;;;;;;5133370;28;20034;-78
2022/08/07 07:23:20;;;;;;;1.83;1.33;;;23.20;58.70;;;;;;5132663;28;20367;-78
2022/08/07 07:25:49;;;;;;;1.45;1.08;;;23.30;58.40;;;;;;5114496;28;20023;-79
2022/08/07 07:28:23;;;;;;;1.67;1.25;;;23.40;58.20;;;;;;5114631;28;20036;-79
2022/08/07 07:31:21;;;;;;;2.47;1.55;;;23.50;58.70;;;;;;5132995;28;20047;-78
2022/08/07 07:33:50;;;;;;;2.25;1.30;;;23.70;58.50;;;;;;5132761;28;20028;-78
2022/08/07 07:36:17;;;;;;;1.40;1.20;;;24.10;57.00;;;;;;5132591;28;20019;-78
2022/08/07 07:38:44;;;;;;;2.10;1.50;;;24.40;55.70;;;;;;5133245;28;20099;-78
2022/08/07 07:41:11;;;;;;;2.15;1.20;;;24.60;55.60;;;;;;5132598;28;20027;-78
2022/08/07 07:43:42;;;;;;;2.63;1.20;;;24.80;55.00;;;;;;5132933;28;20027;-79
2022/08/07 07:46:08;;;;;;;3.05;1.13;;;24.80;53.90;;;;;;5132178;28;20424;-79
2022/08/07 07:48:36;;;;;;;1.45;1.17;;;24.50;54.40;;;;;;5132871;28;20031;-78
2022/08/07 07:51:03;;;;;;;2.05;1.00;;;24.40;54.60;;;;;;5132473;28;20034;-75
2022/08/07 07:53:30;;;;;;;2.97;1.10;;;24.20;54.90;;;;;;5132857;28;20045;-78
2022/08/07 07:55:58;;;;;;;1.20;1.10;;;24.10;55.50;;;;;;5132692;28;20043;-78
2022/08/07 07:58:32;;;;;;;3.60;1.38;;;23.90;55.80;;;;;;5132320;28;20027;-79
2022/08/07 08:00:59;;;;;;;4.10;1.30;;;23.70;56.50;;;;;;5131016;28;20033;-78
2022/08/07 08:03:27;;;;;;;1.10;1.00;;;23.70;56.50;;;;;;5111755;28;20020;-78
2022/08/07 08:05:53;;;;;;;1.50;1.23;;;23.60;56.90;;;;;;5112210;28;20065;-78
2022/08/07 08:08:20;;;;;;;3.30;1.10;;;23.60;57.20;;;;;;5115649;28;20028;-78
2022/08/07 08:10:46;;;;;;;1.50;1.17;;;24.90;55.30;;;;;;5115218;28;20031;-78
2022/08/07 08:13:14;;;;;;;1.42;1.00;;;26.30;53.50;;;;;;5115070;28;20039;-77
2022/08/07 08:15:41;;;;;;;1.95;1.13;;;27.70;50.30;;;;;;5115468;28;20440;-77
2022/08/07 08:18:10;;;;;;;1.27;1.00;;;29.40;47.30;;;;;;5115167;28;20050;-77
2022/08/07 08:20:37;;;;;;;2.40;1.23;;;29.60;44.70;;;;;;5115375;28;20027;-78
2022/08/07 08:27:03;;;;;;;1.00;0.90;;;27.80;46.50;;;;;;5131957;27;20469;-77
2022/08/07 08:28:54;;;;;;;2.22;1.17;;;27.20;48.10;;;;;;5116398;27;20118;-78
2022/08/07 08:31:23;;;;;;;0.90;0.90;;;26.60;48.60;;;;;;5127343;27;20034;-78
2022/08/07 08:33:53;;;;;;;1.60;1.05;;;26.50;49.70;;;;;;5115456;28;20050;-79
2022/08/07 08:36:20;;;;;;;1.73;1.17;;;26.30;49.50;;;;;;5114923;28;20038;-78
2022/08/07 08:38:47;;;;;;;1.10;1.00;;;26.00;50.10;;;;;;5115318;28;20059;-78
2022/08/07 08:41:22;;;;;;;1.70;1.05;;;25.80;50.70;;;;;;5115236;28;20361;-79
2022/08/07 08:44:08;;;;;;;2.90;1.08;;;25.40;51.50;;;;;;5121904;28;20075;-77
2022/08/07 08:46:53;;;;;;;1.10;1.00;;;25.00;52.70;;;;;;5122457;28;20455;-78
2022/08/07 08:49:56;;;;;;;3.15;1.25;;;24.80;53.60;;;;;;5121669;28;20031;-80
2022/08/07 08:52:27;;;;;;;1.15;1.05;;;24.60;54.00;;;;;;5122384;28;20032;-79
2022/08/07 08:55:08;;;;;;;1.25;0.98;;;24.30;54.40;;;;;;5118899;28;20436;-79
2022/08/07 08:57:41;;;;;;;3.00;1.20;;;24.10;55.50;;;;;;5115060;28;20069;-79
2022/08/07 09:00:08;;;;;;;2.00;1.10;;;24.00;55.70;;;;;;5115307;28;20036;-74
2022/08/07 09:02:58;;;;;;;4.22;1.05;;;23.90;56.40;;;;;;5114877;28;20081;-78
2022/08/07 09:05:50;;;;;;;1.30;1.13;;;23.70;56.70;;;;;;5114358;28;20072;-78
2022/08/07 09:08:29;;;;;;;;;;;23.70;57.20;;;;;;5114878;28;20455;-78
2022/08/07 09:11:33;;;;;;;2.72;1.52;;;23.60;57.20;;;;;;5114619;28;20352;-84
2022/08/07 09:14:18;;;;;;;2.67;1.20;;;23.40;58.00;;;;;;5114653;28;20031;-79
2022/08/07 09:16:46;;;;;;;0.90;0.90;;;23.30;58.50;;;;;;5114128;28;20023;-79
2022/08/07 09:19:27;;;;;;;1.63;1.00;;;23.20;58.70;;;;;;5114350;28;20041;-78
2022/08/07 09:22:10;;;;;;;1.35;1.05;;;23.20;59.80;;;;;;5114406;28;20084;-73
2022/08/07 09:25:03;;;;;;;1.65;1.10;;;23.20;61.60;;;;;;5114310;28;20027;-70
2022/08/07 09:27:38;;;;;;;5.10;1.38;;;23.20;60.30;;;;;;5114326;28;20588;-70
2022/08/07 09:30:09;;;;;;;1.95;1.15;;;23.30;60.40;;;;;;5113821;28;20044;-73
2022/08/07 09:32:35;;;;;;;2.00;1.10;;;23.40;60.70;;;;;;5114401;28;20111;-69
2022/08/07 09:35:11;;;;;;;3.17;1.10;;;23.50;60.10;;;;;;5114287;28;20118;-70
2022/08/07 09:38:02;;;;;;;1.80;1.17;;;23.50;60.80;;;;;;5114187;28;20036;-71
2022/08/07 09:40:34;;;;;;;1.77;1.33;;;23.60;60.10;;;;;;5113866;28;20027;-70
2022/08/07 09:43:34;;;;;;;1.65;1.23;;;23.80;59.90;;;;;;5113948;28;20035;-70
2022/08/07 09:46:34;;;;;;;1.30;1.20;;;23.90;60.80;;;;;;5023611;28;20065;-69
2022/08/07 09:49:18;;;;;;;1.55;1.00;;;23.90;58.90;;;;;;5113704;28;20472;-68
2022/08/07 09:52:35;;;;;;;1.58;1.10;;;23.90;58.60;;;;;;5114081;28;20031;-70
2022/08/07 09:55:14;;;;;;;1.48;1.13;;;24.00;58.30;;;;;;5057552;28;20039;-70
2022/08/07 09:58:17;;;;;;;1.48;1.15;;;24.20;58.30;;;;;;5113997;28;20462;-69
2022/08/07 10:00:46;;;;;;;1.65;1.00;;;24.20;58.70;;;;;;5116415;27;20475;-68
2022/08/07 10:03:21;;;;;;;1.40;1.30;;;24.30;58.10;;;;;;5113428;28;20170;-68
2022/08/07 10:05:55;;;;;;;1.33;1.20;;;24.40;58.60;;;;;;5114023;28;20024;-70
2022/08/07 10:08:50;;;;;;;1.92;1.10;;;24.50;57.90;;;;;;5113362;28;20089;-71
2022/08/07 10:11:27;;;;;;;1.48;1.10;;;24.70;57.50;;;;;;5113003;28;20075;-73
2022/08/07 10:14:05;;;;;;;1.10;1.00;;;24.90;58.20;;;;;;5114128;28;20039;-70
2022/08/07 10:16:59;;;;;;;1.50;1.23;;;24.90;58.20;;;;;;5113219;28;20027;-71
2022/08/07 10:19:39;;;;;;;7.35;1.80;;;24.90;56.60;;;;;;5124824;27;20038;-71
2022/08/07 10:22:24;;;;;;;1.13;1.00;;;25.00;56.40;;;;;;5134068;27;20027;-71
2022/08/07 10:25:08;;;;;;;2.55;1.40;;;25.10;56.60;;;;;;5134188;27;20027;-72
2022/08/07 10:27:51;;;;;;;2.60;1.33;;;25.30;56.00;;;;;;5133379;27;20447;-70
2022/08/07 10:30:46;;;;;;;1.88;1.27;;;25.40;56.00;;;;;;5132719;27;20073;-69
2022/08/07 10:33:33;;;;;;;1.52;1.10;;;25.50;54.90;;;;;;5133852;27;20038;-70
2022/08/07 10:36:29;;;;;;;1.20;1.10;;;25.50;54.80;;;;;;5134086;27;20024;-73
2022/08/07 10:39:01;;;;;;;1.83;0.95;;;25.50;54.90;;;;;;5133718;27;20029;-70
2022/08/07 10:41:47;;;;;;;2.08;1.23;;;25.70;54.80;;;;;;5133079;27;20157;-70
2022/08/07 10:44:40;;;;;;;1.15;0.95;;;25.70;54.20;;;;;;5133737;27;20023;-70
2022/08/07 10:47:38;;;;;;;2.05;1.23;;;25.70;54.30;;;;;;5133745;27;20031;-71
2022/08/07 10:50:23;;;;;;;2.33;1.60;;;25.70;54.60;;;;;;5133337;27;20080;-72
2022/08/07 10:53:29;;;;;;;3.08;1.20;;;25.80;55.20;;;;;;5133564;27;20451;-70
2022/08/07 10:56:24;;;;;;;1.50;1.15;;;25.80;54.00;;;;;;5132701;28;20110;-69
2022/08/07 10:59:18;;;;;;;1.98;0.98;;;25.90;53.90;;;;;;5133636;28;20107;-72
2022/08/07 11:02:21;;;;;;;1.27;1.17;;;26.00;54.30;;;;;;5133518;28;20023;-71
2022/08/07 11:05:16;;;;;;;0.98;0.85;;;26.10;53.30;;;;;;5120063;28;20047;-73
2022/08/07 11:07:51;;;;;;;2.72;1.05;;;26.30;53.20;;;;;;5133644;28;20023;-71
2022/08/07 11:10:33;;;;;;;1.05;0.95;;;26.30;53.10;;;;;;5133419;28;20076;-70
2022/08/07 11:13:06;;;;;;;1.30;1.13;;;26.50;53.20;;;;;;5133488;28;20032;-71
2022/08/07 11:15:37;;;;;;;2.22;1.17;;;26.60;52.20;;;;;;5114577;28;20028;-71
2022/08/07 11:18:18;;;;;;;2.63;1.10;;;26.60;52.20;;;;;;5133123;28;20023;-71
2022/08/07 11:21:01;;;;;;;1.10;0.93;;;26.70;52.00;;;;;;5133600;28;20035;-72
2022/08/07 11:23:51;;;;;;;1.67;1.30;;;26.80;51.90;;;;;;5132674;28;20068;-71
2022/08/07 11:26:40;;;;;;;2.38;1.30;;;26.90;51.70;;;;;;5132969;28;20534;-71
2022/08/07 11:29:32;;;;;;;1.45;1.23;;;26.80;51.30;;;;;;5133560;28;20084;-72
2022/08/07 11:32:07;;;;;;;0.85;0.80;;;26.70;50.80;;;;;;5133116;28;20359;-73
2022/08/07 11:35:10;;;;;;;0.98;0.85;;;26.60;51.00;;;;;;5132795;28;20027;-73
2022/08/07 11:37:44;;;;;;;2.03;1.00;;;26.50;51.00;;;;;;5110099;28;20042;-72
2022/08/07 11:40:13;;;;;;;1.38;1.10;;;26.40;51.60;;;;;;5133594;27;20024;-70
2022/08/07 11:43:05;;;;;;;2.55;1.45;;;26.30;51.60;;;;;;5136719;27;20281;-71
2022/08/07 11:45:40;;;;;;;2.22;1.08;;;26.30;52.20;;;;;;5137047;27;20448;-71
2022/08/07 11:48:23;;;;;;;2.30;1.08;;;26.10;52.30;;;;;;5136920;27;20066;-70
2022/08/07 11:51:15;;;;;;;2.38;0.93;;;26.00;52.70;;;;;;5136483;27;20027;-69
2022/08/07 11:53:43;;;;;;;1.52;1.13;;;26.00;53.10;;;;;;5090623;27;20364;-69
2022/08/07 11:56:42;;;;;;;5.63;2.28;;;26.00;51.60;;;;;;5136779;27;20037;-71
2022/08/07 11:59:17;;;;;;;0.82;0.80;;;25.90;51.80;;;;;;5136601;27;20023;-72
2022/08/07 12:02:01;;;;;;;2.80;1.00;;;25.80;51.90;;;;;;5136316;27;20034;-73
2022/08/07 12:05:05;;;;;;;2.45;1.05;;;25.70;51.70;;;;;;5136312;27;20034;-73
2022/08/07 12:07:39;;;;;;;1.70;1.40;;;25.70;52.10;;;;;;5135834;27;20498;-70
2022/08/07 12:10:14;;;;;;;1.20;0.90;;;25.70;51.70;;;;;;5119374;27;20032;-72
2022/08/07 12:12:59;;;;;;;1.88;1.27;;;25.70;51.40;;;;;;5115288;28;20035;-70
2022/08/07 12:15:31;;;;;;;1.33;1.15;;;25.70;51.30;;;;;;5115599;28;20411;-68
2022/08/07 12:18:20;;;;;;;1.58;1.05;;;25.70;51.00;;;;;;5115826;28;20023;-71
2022/08/07 12:21:11;;;;;;;1.75;1.08;;;25.70;52.10;;;;;;5115565;28;20355;-71
2022/08/07 12:23:40;;;;;;;;;;;25.60;52.30;;;;;;5118018;27;20103;-71
2022/08/07 12:26:30;;;;;;;1.83;0.93;;;25.60;52.10;;;;;;5120816;27;20324;-71
2022/08/07 12:29:04;;;;;;;0.80;0.70;;;25.60;51.70;;;;;;5135796;27;20146;-71
2022/08/07 12:31:33;;;;;;;0.90;0.85;;;25.60;51.70;;;;;;5135682;27;20051;-70
2022/08/07 12:34:00;;;;;;;1.35;0.88;;;25.60;52.20;;;;;;5135939;27;20033;-71
2022/08/07 12:36:28;;;;;;;1.30;1.05;;;25.60;52.20;;;;;;5135818;27;20019;-70
2022/08/07 12:38:55;;;;;;;1.02;0.93;;;25.60;52.60;;;;;;5136012;27;20038;-72
2022/08/07 12:41:24;;;;;;;1.50;0.73;;;25.70;51.80;;;;;;5135852;27;20488;-71
2022/08/07 12:43:53;;;;;;;1.17;1.08;;;25.70;52.00;;;;;;5135901;27;20030;-71
2022/08/07 12:47:03;;;;;;;1.10;1.00;;;25.70;51.50;;;;;;5135782;27;20106;-72
2022/08/07 12:49:49;;;;;;;1.10;1.00;;;25.70;51.90;;;;;;5031748;28;20029;-71
2022/08/07 12:52:17;;;;;;;1.77;1.10;;;25.70;52.10;;;;;;5133489;27;20046;-71
2022/08/07 12:54:59;;;;;;;1.45;1.20;;;25.70;52.30;;;;;;5135265;27;20027;-71
2022/08/07 12:57:30;;;;;;;1.13;1.02;;;25.80;52.10;;;;;;5135509;27;20054;-67
2022/08/07 12:59:58;;;;;;;4.00;1.20;;;25.80;51.20;;;;;;5135212;27;20019;-70
2022/08/07 13:02:54;;;;;;;1.20;1.10;;;25.90;51.30;;;;;;5135067;27;20027;-71
2022/08/07 13:06:05;;;;;;;1.52;1.10;;;25.90;52.40;;;;;;5135186;27;20019;-72
2022/08/07 13:08:55;;;;;;;2.30;1.10;;;26.00;51.40;;;;;;5134677;27;20027;-71
2022/08/07 13:11:24;;;;;;;1.42;1.20;;;26.00;50.70;;;;;;5135228;27;20039;-71
2022/08/07 13:14:15;;;;;;;1.57;1.10;;;26.00;50.50;;;;;;5116483;27;20117;-71
2022/08/07 13:17:23;;;;;;;1.42;1.10;;;26.00;50.50;;;;;;5116441;27;20034;-70
2022/08/07 13:20:05;;;;;;;3.53;1.10;;;26.10;51.00;;;;;;5121084;27;20031;-71
2022/08/07 13:22:51;;;;;;;1.30;0.90;;;26.20;51.10;;;;;;5134826;27;20050;-71
2022/08/07 13:25:30;;;;;;;1.27;1.13;;;26.30;50.80;;;;;;5135174;27;20051;-72